sensor_id;sensor_type;location;lat;lon;timestamp;P1;durP1;ratioP1;P2;durP2;ratioP2
2622;SDS011;1321;48.690;9.022;2022-09-27T00:01:46;1.80;;;1.70;;
2622;SDS011;1321;48.690;9.022;2022-09-27T00:04:16;1.93;;;1.83;;
2622;SDS011;1321;48.690;9.022;2022-09-27T00:06:44;2.10;;;2.00;;
2622;SDS011;1321;48.690;9.022;2022-09-27T00:09:12;1.60;;;1.50;;
2622;SDS011;1321;48.690;9.022;2022-09-27T00:11:41;1.77;;;1.67;;
2622;SDS011;1321;48.690;9.022;2022-09-27T00:14:10;1.90;;;1.80;;
2622;SDS011;1321;48.690;9.022;2022-09-27T00:16:39;2.03;;;1.73;;
2622;SDS011;1321;48.690;9.022;2022-09-27T00:19:10;2.00;;;1.90;;
2622;SDS011;1321;48.690;9.022;2022-09-27T00:21:43;2.03;;;1.93;;
2622;SDS011;1321;48.690;9.022;2022-09-27T00:24:12;1.70;;;1.70;;
2622;SDS011;1321;48.690;9.022;2022-09-27T00:26:41;1.90;;;1.80;;
2622;SDS011;1321;48.690;9.022;2022-09-27T00:29:10;1.90;;;1.90;;
2622;SDS011;1321;48.690;9.022;2022-09-27T00:31:38;1.73;;;1.73;;
2622;SDS011;1321;48.690;9.022;2022-09-27T00:34:07;1.77;;;1.77;;
2622;SDS011;1321;48.690;9.022;2022-09-27T00:36:44;2.87;;;1.80;;
2622;SDS011;1321;48.690;9.022;2022-09-27T00:39:13;1.80;;;1.80;;
2622;SDS011;1321;48.690;9.022;2022-09-27T00:41:42;3.13;;;1.73;;
2622;SDS011;1321;48.690;9.022;2022-09-27T00:47:22;2.20;;;2.00;;
2622;SDS011;1321;48.690;9.022;2022-09-27T00:49:54;2.10;;;2.00;;
2622;SDS011;1321;48.690;9.022;2022-09-27T00:52:28;2.00;;;2.00;;
2622;SDS011;1321;48.690;9.022;2022-09-27T00:55:02;2.00;;;2.00;;
2622;SDS011;1321;48.690;9.022;2022-09-27T00:57:34;2.00;;;1.93;;
2622;SDS011;1321;48.690;9.022;2022-09-27T01:00:03;1.90;;;1.83;;
2622;SDS011;1321;48.690;9.022;2022-09-27T01:02:35;1.87;;;1.87;;
2622;SDS011;1321;48.690;9.022;2022-09-27T01:05:05;2.30;;;2.20;;
2622;SDS011;1321;48.690;9.022;2022-09-27T01:07:36;2.13;;;2.10;;
2622;SDS011;1321;48.690;9.022;2022-09-27T01:10:04;1.90;;;1.90;;
2622;SDS011;1321;48.690;9.022;2022-09-27T01:12:36;2.47;;;2.37;;
2622;SDS011;1321;48.690;9.022;2022-09-27T01:15:13;2.30;;;2.20;;
2622;SDS011;1321;48.690;9.022;2022-09-27T01:17:51;2.20;;;2.00;;
2622;SDS011;1321;48.690;9.022;2022-09-27T01:23:50;2.50;;;2.40;;
2622;SDS011;1321;48.690;9.022;2022-09-27T01:26:41;2.53;;;2.40;;
2622;SDS011;1321;48.690;9.022;2022-09-27T01:29:29;2.10;;;2.00;;
2622;SDS011;1321;48.690;9.022;2022-09-27T01:32:11;2.00;;;2.00;;
2622;SDS011;1321;48.690;9.022;2022-09-27T01:34:46;2.00;;;2.00;;
2622;SDS011;1321;48.690;9.022;2022-09-27T01:37:23;2.20;;;2.10;;
2622;SDS011;1321;48.690;9.022;2022-09-27T01:39:58;2.30;;;2.20;;
2622;SDS011;1321;48.690;9.022;2022-09-27T01:42:30;2.57;;;2.40;;
2622;SDS011;1321;48.690;9.022;2022-09-27T01:45:04;2.50;;;2.40;;
2622;SDS011;1321;48.690;9.022;2022-09-27T01:47:39;2.67;;;2.60;;
2622;SDS011;1321;48.690;9.022;2022-09-27T01:50:12;2.80;;;2.70;;
2622;SDS011;1321;48.690;9.022;2022-09-27T01:52:46;2.23;;;2.13;;
2622;SDS011;1321;48.690;9.022;2022-09-27T01:55:18;2.13;;;2.10;;
2622;SDS011;1321;48.690;9.022;2022-09-27T01:57:52;2.30;;;2.20;;
2622;SDS011;1321;48.690;9.022;2022-09-27T02:00:24;2.30;;;2.20;;
2622;SDS011;1321;48.690;9.022;2022-09-27T02:02:56;2.60;;;2.50;;
2622;SDS011;1321;48.690;9.022;2022-09-27T02:05:28;2.53;;;2.40;;
2622;SDS011;1321;48.690;9.022;2022-09-27T02:08:00;2.60;;;2.60;;
2622;SDS011;1321;48.690;9.022;2022-09-27T02:10:34;2.97;;;2.87;;
2622;SDS011;1321;48.690;9.022;2022-09-27T02:13:09;3.00;;;2.90;;
2622;SDS011;1321;48.690;9.022;2022-09-27T02:15:46;2.73;;;2.60;;
2622;SDS011;1321;48.690;9.022;2022-09-27T02:18:22;2.83;;;2.70;;
2622;SDS011;1321;48.690;9.022;2022-09-27T02:20:57;2.87;;;2.77;;
2622;SDS011;1321;48.690;9.022;2022-09-27T02:23:28;3.27;;;3.17;;
2622;SDS011;1321;48.690;9.022;2022-09-27T02:26:05;3.20;;;3.10;;
2622;SDS011;1321;48.690;9.022;2022-09-27T02:28:40;2.60;;;2.60;;
2622;SDS011;1321;48.690;9.022;2022-09-27T02:31:11;3.37;;;2.90;;
2622;SDS011;1321;48.690;9.022;2022-09-27T02:33:43;2.70;;;2.60;;
2622;SDS011;1321;48.690;9.022;2022-09-27T02:36:15;3.53;;;2.20;;
2622;SDS011;1321;48.690;9.022;2022-09-27T02:38:44;2.20;;;2.20;;
2622;SDS011;1321;48.690;9.022;2022-09-27T02:41:13;2.00;;;2.00;;
2622;SDS011;1321;48.690;9.022;2022-09-27T02:43:44;2.03;;;1.93;;
2622;SDS011;1321;48.690;9.022;2022-09-27T02:46:18;1.73;;;1.73;;
2622;SDS011;1321;48.690;9.022;2022-09-27T02:49:13;1.87;;;1.77;;
2622;SDS011;1321;48.690;9.022;2022-09-27T02:51:58;2.10;;;2.00;;
2622;SDS011;1321;48.690;9.022;2022-09-27T02:54:40;1.77;;;1.70;;
2622;SDS011;1321;48.690;9.022;2022-09-27T02:57:21;1.60;;;1.60;;
2622;SDS011;1321;48.690;9.022;2022-09-27T03:00:02;1.80;;;1.80;;
2622;SDS011;1321;48.690;9.022;2022-09-27T03:02:34;1.50;;;1.50;;
2622;SDS011;1321;48.690;9.022;2022-09-27T03:05:12;1.70;;;1.60;;
2622;SDS011;1321;48.690;9.022;2022-09-27T03:07:44;1.40;;;1.40;;
2622;SDS011;1321;48.690;9.022;2022-09-27T03:10:15;1.50;;;1.40;;
2622;SDS011;1321;48.690;9.022;2022-09-27T03:12:45;1.43;;;1.43;;
2622;SDS011;1321;48.690;9.022;2022-09-27T03:15:13;1.80;;;1.70;;
2622;SDS011;1321;48.690;9.022;2022-09-27T03:17:41;1.40;;;1.40;;
2622;SDS011;1321;48.690;9.022;2022-09-27T03:20:10;1.73;;;1.73;;
2622;SDS011;1321;48.690;9.022;2022-09-27T03:22:39;1.83;;;1.73;;
2622;SDS011;1321;48.690;9.022;2022-09-27T03:25:08;1.97;;;1.60;;
2622;SDS011;1321;48.690;9.022;2022-09-27T03:27:36;1.97;;;1.80;;
2622;SDS011;1321;48.690;9.022;2022-09-27T03:30:05;2.07;;;1.97;;
2622;SDS011;1321;48.690;9.022;2022-09-27T03:32:34;1.70;;;1.60;;
2622;SDS011;1321;48.690;9.022;2022-09-27T03:35:08;4.00;;;1.93;;
2622;SDS011;1321;48.690;9.022;2022-09-27T03:37:38;3.00;;;2.17;;
2622;SDS011;1321;48.690;9.022;2022-09-27T03:40:08;2.37;;;2.17;;
2622;SDS011;1321;48.690;9.022;2022-09-27T03:42:37;2.97;;;2.77;;
2622;SDS011;1321;48.690;9.022;2022-09-27T03:45:06;2.87;;;2.63;;
2622;SDS011;1321;48.690;9.022;2022-09-27T03:47:38;2.43;;;2.23;;
2622;SDS011;1321;48.690;9.022;2022-09-27T03:50:08;2.07;;;1.90;;
2622;SDS011;1321;48.690;9.022;2022-09-27T03:52:39;2.07;;;1.90;;
2622;SDS011;1321;48.690;9.022;2022-09-27T03:55:09;2.93;;;2.20;;
2622;SDS011;1321;48.690;9.022;2022-09-27T03:57:37;2.00;;;1.90;;
2622;SDS011;1321;48.690;9.022;2022-09-27T04:00:10;7.73;;;2.53;;
2622;SDS011;1321;48.690;9.022;2022-09-27T04:02:39;2.27;;;2.17;;
2622;SDS011;1321;48.690;9.022;2022-09-27T04:05:09;3.63;;;2.50;;
2622;SDS011;1321;48.690;9.022;2022-09-27T04:07:39;2.80;;;2.60;;
2622;SDS011;1321;48.690;9.022;2022-09-27T04:10:12;2.13;;;2.03;;
2622;SDS011;1321;48.690;9.022;2022-09-27T04:12:40;5.43;;;2.30;;
2622;SDS011;1321;48.690;9.022;2022-09-27T04:15:09;2.87;;;2.60;;
2622;SDS011;1321;48.690;9.022;2022-09-27T04:17:39;3.73;;;3.43;;
2622;SDS011;1321;48.690;9.022;2022-09-27T04:20:08;2.90;;;2.70;;
2622;SDS011;1321;48.690;9.022;2022-09-27T04:22:39;3.70;;;3.27;;
2622;SDS011;1321;48.690;9.022;2022-09-27T04:25:09;4.30;;;2.70;;
2622;SDS011;1321;48.690;9.022;2022-09-27T04:27:38;3.00;;;2.70;;
2622;SDS011;1321;48.690;9.022;2022-09-27T04:30:11;3.33;;;3.13;;
2622;SDS011;1321;48.690;9.022;2022-09-27T04:32:40;3.00;;;2.80;;
2622;SDS011;1321;48.690;9.022;2022-09-27T04:35:09;2.60;;;2.47;;
2622;SDS011;1321;48.690;9.022;2022-09-27T04:37:57;2.37;;;2.27;;
2622;SDS011;1321;48.690;9.022;2022-09-27T04:40:26;2.57;;;2.37;;
2622;SDS011;1321;48.690;9.022;2022-09-27T04:42:54;2.23;;;2.13;;
2622;SDS011;1321;48.690;9.022;2022-09-27T04:45:23;3.03;;;2.80;;
2622;SDS011;1321;48.690;9.022;2022-09-27T04:47:51;3.60;;;3.37;;
2622;SDS011;1321;48.690;9.022;2022-09-27T04:50:20;2.63;;;2.40;;
2622;SDS011;1321;48.690;9.022;2022-09-27T04:52:49;4.20;;;3.10;;
2622;SDS011;1321;48.690;9.022;2022-09-27T04:55:20;2.30;;;2.20;;
2622;SDS011;1321;48.690;9.022;2022-09-27T04:57:49;2.50;;;2.30;;
2622;SDS011;1321;48.690;9.022;2022-09-27T05:00:17;2.30;;;2.10;;
2622;SDS011;1321;48.690;9.022;2022-09-27T05:02:46;2.93;;;2.13;;
2622;SDS011;1321;48.690;9.022;2022-09-27T05:05:15;3.03;;;2.17;;
2622;SDS011;1321;48.690;9.022;2022-09-27T05:07:44;2.10;;;1.93;;
2622;SDS011;1321;48.690;9.022;2022-09-27T05:10:12;2.00;;;1.90;;
2622;SDS011;1321;48.690;9.022;2022-09-27T05:12:42;1.90;;;1.80;;
2622;SDS011;1321;48.690;9.022;2022-09-27T05:15:10;2.10;;;2.00;;
2622;SDS011;1321;48.690;9.022;2022-09-27T05:17:38;1.83;;;1.80;;
2622;SDS011;1321;48.690;9.022;2022-09-27T05:20:07;1.90;;;1.80;;
2622;SDS011;1321;48.690;9.022;2022-09-27T05:22:38;1.80;;;1.70;;
2622;SDS011;1321;48.690;9.022;2022-09-27T05:25:07;2.00;;;1.90;;
2622;SDS011;1321;48.690;9.022;2022-09-27T05:27:35;2.10;;;1.90;;
2622;SDS011;1321;48.690;9.022;2022-09-27T05:30:06;2.13;;;2.00;;
2622;SDS011;1321;48.690;9.022;2022-09-27T05:32:34;2.33;;;1.80;;
2622;SDS011;1321;48.690;9.022;2022-09-27T05:35:07;2.03;;;1.93;;
2622;SDS011;1321;48.690;9.022;2022-09-27T05:37:35;2.53;;;2.37;;
2622;SDS011;1321;48.690;9.022;2022-09-27T05:40:04;2.80;;;2.40;;
2622;SDS011;1321;48.690;9.022;2022-09-27T05:42:53;2.67;;;2.47;;
2622;SDS011;1321;48.690;9.022;2022-09-27T05:45:24;2.40;;;2.10;;
2622;SDS011;1321;48.690;9.022;2022-09-27T05:47:53;2.30;;;2.10;;
2622;SDS011;1321;48.690;9.022;2022-09-27T05:50:23;1.90;;;1.80;;
2622;SDS011;1321;48.690;9.022;2022-09-27T05:52:52;2.10;;;2.00;;
2622;SDS011;1321;48.690;9.022;2022-09-27T05:55:21;1.73;;;1.70;;
2622;SDS011;1321;48.690;9.022;2022-09-27T05:57:53;2.10;;;2.00;;
2622;SDS011;1321;48.690;9.022;2022-09-27T06:00:24;2.00;;;1.90;;
2622;SDS011;1321;48.690;9.022;2022-09-27T06:02:54;1.80;;;1.70;;
2622;SDS011;1321;48.690;9.022;2022-09-27T06:05:25;2.20;;;2.10;;
2622;SDS011;1321;48.690;9.022;2022-09-27T06:07:57;1.87;;;1.83;;
2622;SDS011;1321;48.690;9.022;2022-09-27T06:10:27;3.27;;;2.13;;
2622;SDS011;1321;48.690;9.022;2022-09-27T06:12:59;2.00;;;1.90;;
2622;SDS011;1321;48.690;9.022;2022-09-27T06:15:30;1.83;;;1.73;;
2622;SDS011;1321;48.690;9.022;2022-09-27T06:18:01;1.87;;;1.70;;
2622;SDS011;1321;48.690;9.022;2022-09-27T06:20:31;1.60;;;1.60;;
2622;SDS011;1321;48.690;9.022;2022-09-27T06:23:03;1.87;;;1.77;;
2622;SDS011;1321;48.690;9.022;2022-09-27T06:25:37;1.73;;;1.63;;
2622;SDS011;1321;48.690;9.022;2022-09-27T06:28:06;1.63;;;1.63;;
2622;SDS011;1321;48.690;9.022;2022-09-27T06:30:38;1.70;;;1.60;;
2622;SDS011;1321;48.690;9.022;2022-09-27T06:33:08;1.60;;;1.60;;
2622;SDS011;1321;48.690;9.022;2022-09-27T06:35:39;1.40;;;1.30;;
2622;SDS011;1321;48.690;9.022;2022-09-27T06:38:11;2.40;;;1.80;;
2622;SDS011;1321;48.690;9.022;2022-09-27T06:40:41;1.40;;;1.40;;
2622;SDS011;1321;48.690;9.022;2022-09-27T06:43:11;1.30;;;1.30;;
2622;SDS011;1321;48.690;9.022;2022-09-27T06:45:42;1.83;;;1.60;;
2622;SDS011;1321;48.690;9.022;2022-09-27T06:48:11;1.50;;;1.40;;
2622;SDS011;1321;48.690;9.022;2022-09-27T06:50:42;1.40;;;1.40;;
2622;SDS011;1321;48.690;9.022;2022-09-27T06:53:12;1.63;;;1.63;;
2622;SDS011;1321;48.690;9.022;2022-09-27T06:55:42;2.40;;;2.20;;
2622;SDS011;1321;48.690;9.022;2022-09-27T06:58:11;1.70;;;1.60;;
2622;SDS011;1321;48.690;9.022;2022-09-27T07:00:58;1.47;;;1.40;;
2622;SDS011;1321;48.690;9.022;2022-09-27T07:03:27;1.20;;;1.20;;
2622;SDS011;1321;48.690;9.022;2022-09-27T07:06:05;1.40;;;1.40;;
2622;SDS011;1321;48.690;9.022;2022-09-27T07:08:36;1.20;;;1.20;;
2622;SDS011;1321;48.690;9.022;2022-09-27T07:11:08;1.20;;;1.20;;
2622;SDS011;1321;48.690;9.022;2022-09-27T07:13:36;1.43;;;1.33;;
2622;SDS011;1321;48.690;9.022;2022-09-27T07:16:11;1.80;;;1.70;;
2622;SDS011;1321;48.690;9.022;2022-09-27T07:18:40;1.40;;;1.40;;
2622;SDS011;1321;48.690;9.022;2022-09-27T07:21:08;1.33;;;1.23;;
2622;SDS011;1321;48.690;9.022;2022-09-27T07:23:38;1.20;;;1.20;;
2622;SDS011;1321;48.690;9.022;2022-09-27T07:26:06;2.00;;;1.30;;
2622;SDS011;1321;48.690;9.022;2022-09-27T07:28:36;2.00;;;1.30;;
2622;SDS011;1321;48.690;9.022;2022-09-27T07:31:07;1.27;;;1.20;;
2622;SDS011;1321;48.690;9.022;2022-09-27T07:33:37;1.33;;;1.30;;
2622;SDS011;1321;48.690;9.022;2022-09-27T07:36:09;1.37;;;1.37;;
2622;SDS011;1321;48.690;9.022;2022-09-27T07:38:39;1.50;;;1.40;;
2622;SDS011;1321;48.690;9.022;2022-09-27T07:41:08;1.40;;;1.40;;
2622;SDS011;1321;48.690;9.022;2022-09-27T07:43:39;1.43;;;1.43;;
2622;SDS011;1321;48.690;9.022;2022-09-27T07:46:09;1.40;;;1.40;;
2622;SDS011;1321;48.690;9.022;2022-09-27T07:48:40;1.40;;;1.40;;
2622;SDS011;1321;48.690;9.022;2022-09-27T07:51:08;1.40;;;1.30;;
2622;SDS011;1321;48.690;9.022;2022-09-27T07:53:37;1.40;;;1.30;;
2622;SDS011;1321;48.690;9.022;2022-09-27T07:56:06;2.40;;;1.57;;
2622;SDS011;1321;48.690;9.022;2022-09-27T07:58:35;1.60;;;1.50;;
2622;SDS011;1321;48.690;9.022;2022-09-27T08:01:03;1.60;;;1.50;;
2622;SDS011;1321;48.690;9.022;2022-09-27T08:03:32;1.30;;;1.30;;
2622;SDS011;1321;48.690;9.022;2022-09-27T08:06:02;1.20;;;1.20;;
2622;SDS011;1321;48.690;9.022;2022-09-27T08:08:31;1.30;;;1.30;;
2622;SDS011;1321;48.690;9.022;2022-09-27T08:10:59;1.60;;;1.50;;
2622;SDS011;1321;48.690;9.022;2022-09-27T08:13:28;1.30;;;1.30;;
2622;SDS011;1321;48.690;9.022;2022-09-27T08:16:00;1.30;;;1.30;;
2622;SDS011;1321;48.690;9.022;2022-09-27T08:18:29;1.27;;;1.27;;
2622;SDS011;1321;48.690;9.022;2022-09-27T08:20:57;1.20;;;1.20;;
2622;SDS011;1321;48.690;9.022;2022-09-27T08:23:28;1.10;;;1.10;;
2622;SDS011;1321;48.690;9.022;2022-09-27T08:25:56;1.10;;;1.10;;
2622;SDS011;1321;48.690;9.022;2022-09-27T08:28:25;1.30;;;1.30;;
2622;SDS011;1321;48.690;9.022;2022-09-27T08:30:53;1.20;;;1.20;;
2622;SDS011;1321;48.690;9.022;2022-09-27T08:33:24;1.70;;;1.33;;
2622;SDS011;1321;48.690;9.022;2022-09-27T08:35:58;1.40;;;1.40;;
2622;SDS011;1321;48.690;9.022;2022-09-27T08:38:28;3.53;;;3.30;;
2622;SDS011;1321;48.690;9.022;2022-09-27T08:40:57;1.27;;;1.27;;
2622;SDS011;1321;48.690;9.022;2022-09-27T08:43:32;2.53;;;1.43;;
2622;SDS011;1321;48.690;9.022;2022-09-27T08:46:09;1.73;;;1.20;;
2622;SDS011;1321;48.690;9.022;2022-09-27T08:48:47;1.20;;;1.20;;
2622;SDS011;1321;48.690;9.022;2022-09-27T08:51:20;1.30;;;1.30;;
2622;SDS011;1321;48.690;9.022;2022-09-27T08:53:54;1.30;;;1.20;;
2622;SDS011;1321;48.690;9.022;2022-09-27T08:56:27;1.20;;;1.20;;
2622;SDS011;1321;48.690;9.022;2022-09-27T08:58:57;1.20;;;1.17;;
2622;SDS011;1321;48.690;9.022;2022-09-27T09:01:30;1.20;;;1.20;;
2622;SDS011;1321;48.690;9.022;2022-09-27T09:04:01;1.20;;;1.20;;
2622;SDS011;1321;48.690;9.022;2022-09-27T09:06:32;1.33;;;1.23;;
2622;SDS011;1321;48.690;9.022;2022-09-27T09:09:10;1.10;;;1.07;;
2622;SDS011;1321;48.690;9.022;2022-09-27T09:11:49;1.30;;;1.30;;
2622;SDS011;1321;48.690;9.022;2022-09-27T09:14:53;1.23;;;1.23;;
2622;SDS011;1321;48.690;9.022;2022-09-27T09:17:46;1.10;;;1.10;;
2622;SDS011;1321;48.690;9.022;2022-09-27T09:20:25;2.50;;;1.20;;
2622;SDS011;1321;48.690;9.022;2022-09-27T09:23:06;1.13;;;1.13;;
2622;SDS011;1321;48.690;9.022;2022-09-27T09:25:52;1.07;;;1.07;;
2622;SDS011;1321;48.690;9.022;2022-09-27T09:28:30;1.10;;;1.10;;
2622;SDS011;1321;48.690;9.022;2022-09-27T09:31:11;1.50;;;1.40;;
2622;SDS011;1321;48.690;9.022;2022-09-27T09:33:51;1.17;;;1.00;;
2622;SDS011;1321;48.690;9.022;2022-09-27T09:36:25;1.13;;;1.13;;
2622;SDS011;1321;48.690;9.022;2022-09-27T09:38:57;1.60;;;1.13;;
2622;SDS011;1321;48.690;9.022;2022-09-27T09:41:32;2.23;;;2.10;;
2622;SDS011;1321;48.690;9.022;2022-09-27T09:44:09;1.30;;;1.20;;
2622;SDS011;1321;48.690;9.022;2022-09-27T09:46:43;2.20;;;1.20;;
2622;SDS011;1321;48.690;9.022;2022-09-27T09:49:15;1.70;;;1.60;;
2622;SDS011;1321;48.690;9.022;2022-09-27T09:51:47;1.20;;;1.20;;
2622;SDS011;1321;48.690;9.022;2022-09-27T09:54:18;1.43;;;1.30;;
2622;SDS011;1321;48.690;9.022;2022-09-27T09:56:54;4.10;;;2.07;;
2622;SDS011;1321;48.690;9.022;2022-09-27T09:59:29;1.40;;;1.30;;
2622;SDS011;1321;48.690;9.022;2022-09-27T10:02:09;1.10;;;1.10;;
2622;SDS011;1321;48.690;9.022;2022-09-27T10:04:46;2.20;;;1.27;;
2622;SDS011;1321;48.690;9.022;2022-09-27T10:07:15;1.83;;;1.20;;
2622;SDS011;1321;48.690;9.022;2022-09-27T10:09:48;1.10;;;1.00;;
2622;SDS011;1321;48.690;9.022;2022-09-27T10:12:19;1.10;;;1.00;;
2622;SDS011;1321;48.690;9.022;2022-09-27T10:14:47;1.30;;;1.20;;
2622;SDS011;1321;48.690;9.022;2022-09-27T10:17:18;1.33;;;1.00;;
2622;SDS011;1321;48.690;9.022;2022-09-27T10:19:49;2.40;;;1.30;;
2622;SDS011;1321;48.690;9.022;2022-09-27T10:22:21;1.33;;;1.20;;
2622;SDS011;1321;48.690;9.022;2022-09-27T10:24:55;1.10;;;1.10;;
2622;SDS011;1321;48.690;9.022;2022-09-27T10:27:26;1.00;;;1.00;;
2622;SDS011;1321;48.690;9.022;2022-09-27T10:29:55;1.07;;;1.07;;
2622;SDS011;1321;48.690;9.022;2022-09-27T10:32:25;2.07;;;1.57;;
2622;SDS011;1321;48.690;9.022;2022-09-27T10:37:49;2.13;;;1.47;;
2622;SDS011;1321;48.690;9.022;2022-09-27T10:40:24;1.43;;;1.33;;
2622;SDS011;1321;48.690;9.022;2022-09-27T10:42:55;1.40;;;1.30;;
2622;SDS011;1321;48.690;9.022;2022-09-27T10:45:26;2.10;;;1.70;;
2622;SDS011;1321;48.690;9.022;2022-09-27T10:47:56;1.80;;;1.30;;
2622;SDS011;1321;48.690;9.022;2022-09-27T10:50:26;2.80;;;1.27;;
2622;SDS011;1321;48.690;9.022;2022-09-27T10:53:16;1.40;;;1.30;;
2622;SDS011;1321;48.690;9.022;2022-09-27T10:55:47;1.73;;;1.30;;
2622;SDS011;1321;48.690;9.022;2022-09-27T10:58:23;2.27;;;1.53;;
2622;SDS011;1321;48.690;9.022;2022-09-27T11:00:54;1.80;;;1.40;;
2622;SDS011;1321;48.690;9.022;2022-09-27T11:03:23;1.00;;;1.00;;
2622;SDS011;1321;48.690;9.022;2022-09-27T11:05:54;1.20;;;1.10;;
2622;SDS011;1321;48.690;9.022;2022-09-27T11:08:28;1.10;;;1.00;;
2622;SDS011;1321;48.690;9.022;2022-09-27T11:11:03;0.90;;;0.90;;
2622;SDS011;1321;48.690;9.022;2022-09-27T11:13:34;2.27;;;1.13;;
2622;SDS011;1321;48.690;9.022;2022-09-27T11:16:22;1.10;;;1.00;;
2622;SDS011;1321;48.690;9.022;2022-09-27T11:19:12;1.80;;;1.10;;
2622;SDS011;1321;48.690;9.022;2022-09-27T11:21:58;2.73;;;1.07;;
2622;SDS011;1321;48.690;9.022;2022-09-27T11:24:42;0.87;;;0.87;;
2622;SDS011;1321;48.690;9.022;2022-09-27T11:27:23;1.23;;;1.10;;
2622;SDS011;1321;48.690;9.022;2022-09-27T11:30:07;1.43;;;1.00;;
2622;SDS011;1321;48.690;9.022;2022-09-27T11:32:42;1.10;;;1.10;;
2622;SDS011;1321;48.690;9.022;2022-09-27T11:35:29;1.50;;;1.40;;
2622;SDS011;1321;48.690;9.022;2022-09-27T11:38:16;1.20;;;1.10;;
2622;SDS011;1321;48.690;9.022;2022-09-27T11:41:13;1.50;;;1.40;;
2622;SDS011;1321;48.690;9.022;2022-09-27T11:43:59;3.07;;;1.27;;
2622;SDS011;1321;48.690;9.022;2022-09-27T11:46:55;1.70;;;1.33;;
2622;SDS011;1321;48.690;9.022;2022-09-27T11:49:44;1.40;;;1.30;;
2622;SDS011;1321;48.690;9.022;2022-09-27T11:52:33;1.10;;;1.10;;
2622;SDS011;1321;48.690;9.022;2022-09-27T11:55:15;1.50;;;1.30;;
2622;SDS011;1321;48.690;9.022;2022-09-27T11:57:52;2.90;;;2.10;;
2622;SDS011;1321;48.690;9.022;2022-09-27T12:00:29;1.40;;;1.40;;
2622;SDS011;1321;48.690;9.022;2022-09-27T12:06:16;5.97;;;1.70;;
2622;SDS011;1321;48.690;9.022;2022-09-27T12:08:52;1.57;;;1.47;;
2622;SDS011;1321;48.690;9.022;2022-09-27T12:11:28;1.70;;;1.60;;
2622;SDS011;1321;48.690;9.022;2022-09-27T12:14:04;3.50;;;2.27;;
2622;SDS011;1321;48.690;9.022;2022-09-27T12:16:36;2.20;;;1.30;;
2622;SDS011;1321;48.690;9.022;2022-09-27T12:19:10;1.20;;;1.20;;
2622;SDS011;1321;48.690;9.022;2022-09-27T12:21:43;1.20;;;1.20;;
2622;SDS011;1321;48.690;9.022;2022-09-27T12:24:14;1.40;;;1.30;;
2622;SDS011;1321;48.690;9.022;2022-09-27T12:26:47;1.67;;;1.57;;
2622;SDS011;1321;48.690;9.022;2022-09-27T12:29:19;1.10;;;1.10;;
2622;SDS011;1321;48.690;9.022;2022-09-27T12:31:53;1.47;;;1.37;;
2622;SDS011;1321;48.690;9.022;2022-09-27T12:34:29;1.40;;;1.30;;
2622;SDS011;1321;48.690;9.022;2022-09-27T12:37:06;1.53;;;1.43;;
2622;SDS011;1321;48.690;9.022;2022-09-27T12:39:44;3.27;;;1.60;;
2622;SDS011;1321;48.690;9.022;2022-09-27T12:42:18;1.60;;;1.50;;
2622;SDS011;1321;48.690;9.022;2022-09-27T12:44:49;1.73;;;1.63;;
2622;SDS011;1321;48.690;9.022;2022-09-27T12:47:31;1.47;;;1.37;;
2622;SDS011;1321;48.690;9.022;2022-09-27T12:50:12;1.70;;;1.60;;
2622;SDS011;1321;48.690;9.022;2022-09-27T12:52:50;1.77;;;1.67;;
2622;SDS011;1321;48.690;9.022;2022-09-27T12:55:38;1.40;;;1.40;;
2622;SDS011;1321;48.690;9.022;2022-09-27T13:01:41;1.27;;;1.27;;
2622;SDS011;1321;48.690;9.022;2022-09-27T13:04:29;1.60;;;1.50;;
2622;SDS011;1321;48.690;9.022;2022-09-27T13:07:19;2.73;;;1.60;;
2622;SDS011;1321;48.690;9.022;2022-09-27T13:10:09;1.50;;;1.40;;
2622;SDS011;1321;48.690;9.022;2022-09-27T13:12:56;2.20;;;1.50;;
2622;SDS011;1321;48.690;9.022;2022-09-27T13:15:27;1.30;;;1.30;;
2622;SDS011;1321;48.690;9.022;2022-09-27T13:17:58;2.00;;;1.30;;
2622;SDS011;1321;48.690;9.022;2022-09-27T13:20:36;1.20;;;1.20;;
2622;SDS011;1321;48.690;9.022;2022-09-27T13:26:47;1.30;;;1.30;;
2622;SDS011;1321;48.690;9.022;2022-09-27T13:29:26;1.50;;;1.40;;
2622;SDS011;1321;48.690;9.022;2022-09-27T13:34:51;1.30;;;1.30;;
2622;SDS011;1321;48.690;9.022;2022-09-27T13:40:27;1.40;;;1.30;;
2622;SDS011;1321;48.690;9.022;2022-09-27T13:43:04;1.53;;;1.10;;
2622;SDS011;1321;48.690;9.022;2022-09-27T13:45:53;1.00;;;1.00;;
2622;SDS011;1321;48.690;9.022;2022-09-27T13:48:25;1.10;;;1.10;;
2622;SDS011;1321;48.690;9.022;2022-09-27T13:51:00;1.20;;;1.10;;
2622;SDS011;1321;48.690;9.022;2022-09-27T13:53:32;1.40;;;1.00;;
2622;SDS011;1321;48.690;9.022;2022-09-27T13:56:03;1.07;;;1.07;;
2622;SDS011;1321;48.690;9.022;2022-09-27T13:58:36;1.00;;;1.00;;
2622;SDS011;1321;48.690;9.022;2022-09-27T14:01:21;0.90;;;0.90;;
2622;SDS011;1321;48.690;9.022;2022-09-27T14:03:55;1.00;;;1.00;;
2622;SDS011;1321;48.690;9.022;2022-09-27T14:06:28;1.83;;;1.00;;
2622;SDS011;1321;48.690;9.022;2022-09-27T14:09:02;0.97;;;0.97;;
2622;SDS011;1321;48.690;9.022;2022-09-27T14:11:32;1.43;;;1.10;;
2622;SDS011;1321;48.690;9.022;2022-09-27T14:14:06;1.10;;;1.00;;
2622;SDS011;1321;48.690;9.022;2022-09-27T14:16:42;2.13;;;1.10;;
2622;SDS011;1321;48.690;9.022;2022-09-27T14:19:14;0.93;;;0.93;;
2622;SDS011;1321;48.690;9.022;2022-09-27T14:21:44;1.00;;;1.00;;
2622;SDS011;1321;48.690;9.022;2022-09-27T14:24:20;1.10;;;0.90;;
2622;SDS011;1321;48.690;9.022;2022-09-27T14:26:50;0.93;;;0.93;;
2622;SDS011;1321;48.690;9.022;2022-09-27T14:29:37;1.73;;;1.20;;
2622;SDS011;1321;48.690;9.022;2022-09-27T14:32:09;1.27;;;1.00;;
2622;SDS011;1321;48.690;9.022;2022-09-27T14:34:39;0.90;;;0.90;;
2622;SDS011;1321;48.690;9.022;2022-09-27T14:37:17;1.43;;;1.00;;
2622;SDS011;1321;48.690;9.022;2022-09-27T14:39:55;0.90;;;0.90;;
2622;SDS011;1321;48.690;9.022;2022-09-27T14:42:28;1.07;;;1.03;;
2622;SDS011;1321;48.690;9.022;2022-09-27T14:45:02;0.83;;;0.83;;
2622;SDS011;1321;48.690;9.022;2022-09-27T14:47:43;0.80;;;0.80;;
2622;SDS011;1321;48.690;9.022;2022-09-27T14:50:16;0.80;;;0.80;;
2622;SDS011;1321;48.690;9.022;2022-09-27T14:52:46;0.90;;;0.90;;
2622;SDS011;1321;48.690;9.022;2022-09-27T14:55:16;0.80;;;0.80;;
2622;SDS011;1321;48.690;9.022;2022-09-27T14:57:45;1.10;;;1.00;;
2622;SDS011;1321;48.690;9.022;2022-09-27T15:00:18;0.80;;;0.80;;
2622;SDS011;1321;48.690;9.022;2022-09-27T15:02:48;0.70;;;0.70;;
2622;SDS011;1321;48.690;9.022;2022-09-27T15:05:21;0.87;;;0.87;;
2622;SDS011;1321;48.690;9.022;2022-09-27T15:07:51;1.07;;;1.00;;
2622;SDS011;1321;48.690;9.022;2022-09-27T15:10:21;1.10;;;1.00;;
2622;SDS011;1321;48.690;9.022;2022-09-27T15:12:54;0.90;;;0.90;;
2622;SDS011;1321;48.690;9.022;2022-09-27T15:15:24;0.90;;;0.90;;
2622;SDS011;1321;48.690;9.022;2022-09-27T15:17:55;0.90;;;0.90;;
2622;SDS011;1321;48.690;9.022;2022-09-27T15:20:25;1.00;;;1.00;;
2622;SDS011;1321;48.690;9.022;2022-09-27T15:23:01;2.00;;;0.90;;
2622;SDS011;1321;48.690;9.022;2022-09-27T15:25:32;1.30;;;0.90;;
2622;SDS011;1321;48.690;9.022;2022-09-27T15:28:03;1.10;;;1.00;;
2622;SDS011;1321;48.690;9.022;2022-09-27T15:30:36;0.90;;;0.90;;
2622;SDS011;1321;48.690;9.022;2022-09-27T15:33:06;1.00;;;1.00;;
2622;SDS011;1321;48.690;9.022;2022-09-27T15:35:46;1.17;;;1.03;;
2622;SDS011;1321;48.690;9.022;2022-09-27T15:38:24;0.90;;;0.90;;
2622;SDS011;1321;48.690;9.022;2022-09-27T15:40:58;0.93;;;0.93;;
2622;SDS011;1321;48.690;9.022;2022-09-27T15:43:30;2.80;;;1.60;;
2622;SDS011;1321;48.690;9.022;2022-09-27T15:46:03;1.00;;;1.00;;
2622;SDS011;1321;48.690;9.022;2022-09-27T15:51:52;1.10;;;1.00;;
2622;SDS011;1321;48.690;9.022;2022-09-27T15:54:22;1.67;;;1.10;;
2622;SDS011;1321;48.690;9.022;2022-09-27T15:56:53;2.27;;;1.10;;
2622;SDS011;1321;48.690;9.022;2022-09-27T15:59:24;1.00;;;1.00;;
2622;SDS011;1321;48.690;9.022;2022-09-27T16:01:55;2.57;;;1.30;;
2622;SDS011;1321;48.690;9.022;2022-09-27T16:04:30;1.00;;;1.00;;
2622;SDS011;1321;48.690;9.022;2022-09-27T16:06:59;1.30;;;0.80;;
2622;SDS011;1321;48.690;9.022;2022-09-27T16:09:28;1.37;;;1.10;;
2622;SDS011;1321;48.690;9.022;2022-09-27T16:11:57;1.27;;;0.80;;
2622;SDS011;1321;48.690;9.022;2022-09-27T16:14:25;1.00;;;0.97;;
2622;SDS011;1321;48.690;9.022;2022-09-27T16:16:55;1.47;;;0.90;;
2622;SDS011;1321;48.690;9.022;2022-09-27T16:19:25;2.67;;;1.03;;
2622;SDS011;1321;48.690;9.022;2022-09-27T16:21:53;1.00;;;0.90;;